createdAt,value
2022-11-23T00:04:17.874Z,26.13
2022-11-23T00:09:21.046Z,49.10
2022-11-23T00:14:24.277Z,39.38
2022-11-23T00:19:30.558Z,31.67
2022-11-23T00:24:34.065Z,29.95
2022-11-23T00:29:40.247Z,27.70
2022-11-23T00:34:43.455Z,32.10
2022-11-23T00:39:46.649Z,34.40
2022-11-23T00:44:49.893Z,36.40
2022-11-23T00:49:53.127Z,35.53
2022-11-23T00:54:56.290Z,35.45
2022-11-23T00:59:59.468Z,33.47
2022-11-23T01:05:03.768Z,34.33
2022-11-23T01:10:08.514Z,37.10
2022-11-23T01:15:11.725Z,30.17
2022-11-23T01:20:15.418Z,31.17
2022-11-23T01:25:18.613Z,26.03
2022-11-23T01:30:21.761Z,26.85
2022-11-23T01:35:28.208Z,26.80
2022-11-23T01:40:31.675Z,25.42
2022-11-23T01:45:35.133Z,28.23
2022-11-23T01:50:39.126Z,19.60
2022-11-23T01:55:46.333Z,22.60
2022-11-23T02:00:50.436Z,17.57
2022-11-23T02:06:01.678Z,16.80
2022-11-23T02:11:05.059Z,17.55
2022-11-23T02:16:08.666Z,15.37
2022-11-23T02:21:13.714Z,12.43
2022-11-23T02:26:26.953Z,4.77
2022-11-23T02:31:33.009Z,4.43
2022-11-23T02:36:38.057Z,1.75
2022-11-23T02:41:48.379Z,1.43
2022-11-23T02:46:53.519Z,1.08
2022-11-23T02:51:56.680Z,1.83
2022-11-23T02:57:02.410Z,1.77
2022-11-23T03:02:06.512Z,2.13
2022-11-23T03:07:09.803Z,2.13
2022-11-23T03:12:14.988Z,3.20
2022-11-23T03:17:18.250Z,1.90
2022-11-23T03:22:31.230Z,2.20
2022-11-23T03:27:36.259Z,3.53
2022-11-23T03:32:39.642Z,4.30
2022-11-23T03:37:43.755Z,3.50
2022-11-23T03:42:46.984Z,2.93
2022-11-23T03:47:50.199Z,3.00
2022-11-23T03:52:54.924Z,4.57
2022-11-23T03:58:00.032Z,3.67
2022-11-23T04:03:05.654Z,3.00
2022-11-23T04:08:27.489Z,3.93
2022-11-23T04:13:32.335Z,6.78
2022-11-23T04:18:35.620Z,3.17
2022-11-23T04:23:38.848Z,5.33
2022-11-23T04:28:45.031Z,4.00
2022-11-23T04:33:49.166Z,4.83
2022-11-23T04:38:55.306Z,7.35
2022-11-23T04:44:11.476Z,4.45
2022-11-23T04:49:17.324Z,4.23
2022-11-23T04:54:20.766Z,4.63
2022-11-23T04:59:30.257Z,4.73
2022-11-23T05:04:36.307Z,3.85
2022-11-23T05:09:40.679Z,5.65
2022-11-23T05:15:14.573Z,5.10
2022-11-23T05:20:18.136Z,5.65
2022-11-23T05:25:26.752Z,3.53
2022-11-23T05:30:40.919Z,4.18
2022-11-23T05:35:45.654Z,6.35
2022-11-23T05:40:49.757Z,3.77
2022-11-23T05:45:53.206Z,4.40
2022-11-23T05:51:05.027Z,5.03
2022-11-23T05:56:40.559Z,4.43
2022-11-23T06:08:14.054Z,4.27
2022-11-23T06:13:20.166Z,5.43
2022-11-23T06:18:46.325Z,4.10
2022-11-23T06:24:01.545Z,4.78
2022-11-23T06:29:09.733Z,3.95
2022-11-23T06:34:21.110Z,3.83
2022-11-23T06:45:43.777Z,6.83
2022-11-23T06:51:35.685Z,3.97
2022-11-23T06:56:51.243Z,5.97
2022-11-23T07:02:03.999Z,4.73
2022-11-23T07:07:19.522Z,4.47
2022-11-23T07:12:45.732Z,4.00
2022-11-23T07:18:00.005Z,3.97
2022-11-23T07:23:20.456Z,4.88
2022-11-23T07:29:06.576Z,4.20
2022-11-23T07:34:36.163Z,4.68
2022-11-23T07:39:57.518Z,3.83
2022-11-23T07:46:01.198Z,3.60
2022-11-23T07:51:09.865Z,5.43
2022-11-23T07:56:17.784Z,6.03
2022-11-23T08:01:26.727Z,5.88
2022-11-23T08:12:19.029Z,6.05
2022-11-23T08:17:33.652Z,7.13
2022-11-23T08:22:57.687Z,6.20
2022-11-23T08:28:20.684Z,6.15
2022-11-23T08:33:29.089Z,10.80
2022-11-23T08:38:42.569Z,8.00
2022-11-23T08:44:26.640Z,6.45
2022-11-23T08:49:38.784Z,8.23
2022-11-23T08:54:43.547Z,5.95
2022-11-23T09:00:01.236Z,9.23
2022-11-23T09:12:03.929Z,6.90
2022-11-23T09:33:58.036Z,6.75
2022-11-23T09:45:47.006Z,10.47
2022-11-23T09:51:26.233Z,7.68
2022-11-23T09:57:01.662Z,10.10
2022-11-23T10:03:01.482Z,11.43
2022-11-23T10:21:21.352Z,8.23
2022-11-23T10:27:00.793Z,7.63
2022-11-23T10:39:40.659Z,11.20
2022-11-23T10:45:31.031Z,10.77
2022-11-23T10:51:04.560Z,11.63
2022-11-23T10:56:29.780Z,8.77
2022-11-23T11:01:42.219Z,12.40
2022-11-23T11:06:45.594Z,8.50
2022-11-23T11:11:59.453Z,10.83
2022-11-23T11:22:48.003Z,8.10
2022-11-23T11:27:54.222Z,8.30
2022-11-23T11:33:44.266Z,10.48
2022-11-23T11:45:02.555Z,8.05
2022-11-23T11:50:44.998Z,11.30
2022-11-23T12:02:08.076Z,11.88
2022-11-23T12:07:54.194Z,10.60
2022-11-23T12:13:45.904Z,8.43
2022-11-23T12:19:12.345Z,9.57
2022-11-23T12:25:04.476Z,11.02
2022-11-23T12:31:10.816Z,10.05
2022-11-23T12:36:55.561Z,8.33
2022-11-23T12:42:29.997Z,10.45
2022-11-23T12:48:20.472Z,8.63
2022-11-23T12:54:01.544Z,8.82
2022-11-23T12:59:48.791Z,9.02
2022-11-23T13:05:02.816Z,8.87
2022-11-23T13:10:25.667Z,8.60
2022-11-23T13:16:06.363Z,8.57
2022-11-23T13:21:22.105Z,10.13
2022-11-23T13:27:13.849Z,8.13
2022-11-23T13:32:39.368Z,11.97
2022-11-23T13:37:57.631Z,10.70
2022-11-23T13:43:21.684Z,9.33
2022-11-23T13:48:54.897Z,9.93
2022-11-23T13:53:54.933Z,12.00
2022-11-23T13:59:19.525Z,11.60
2022-11-23T14:04:25.231Z,9.13
2022-11-23T14:09:55.970Z,10.07
2022-11-23T14:15:09.846Z,13.30
2022-11-23T14:20:33.933Z,11.15
2022-11-23T14:25:40.082Z,10.03
2022-11-23T14:31:10.586Z,9.65
2022-11-23T14:36:33.339Z,18.07
2022-11-23T14:41:38.191Z,10.65
2022-11-23T14:47:04.324Z,12.52
2022-11-23T14:52:24.342Z,12.60
2022-11-23T14:57:51.765Z,13.23
2022-11-23T15:02:57.690Z,13.30
2022-11-23T15:08:06.683Z,10.55
2022-11-23T15:13:25.015Z,11.40
2022-11-23T15:18:34.878Z,10.57
2022-11-23T15:23:46.604Z,11.57
2022-11-23T15:28:50.880Z,9.97
2022-11-23T15:34:00.094Z,12.30
2022-11-23T15:39:06.140Z,12.85
2022-11-23T15:44:25.298Z,9.00
2022-11-23T15:49:28.653Z,11.27
2022-11-23T15:54:37.475Z,11.83
2022-11-23T15:59:59.055Z,11.63
2022-11-23T16:05:23.248Z,10.93
2022-11-23T16:10:31.158Z,12.73
2022-11-23T16:15:41.795Z,16.85
2022-11-23T16:20:48.349Z,11.47
2022-11-23T16:31:31.129Z,10.02
2022-11-23T16:36:34.424Z,11.47
2022-11-23T16:41:37.946Z,13.73
2022-11-23T16:46:43.709Z,11.90
2022-11-23T16:51:56.426Z,9.80
2022-11-23T16:57:01.018Z,8.85
2022-11-23T17:02:04.317Z,17.13
2022-11-23T17:07:07.756Z,10.10
2022-11-23T17:12:17.388Z,12.00
2022-11-23T17:17:22.767Z,10.45
2022-11-23T17:22:26.158Z,10.65
2022-11-23T17:27:34.680Z,12.90
2022-11-23T17:32:38.122Z,11.13
2022-11-23T17:37:41.750Z,10.60
2022-11-23T17:42:45.628Z,10.48
2022-11-23T17:47:49.485Z,11.50
2022-11-23T17:52:55.657Z,11.20
2022-11-23T17:57:58.921Z,20.88
2022-11-23T18:03:03.168Z,13.63
2022-11-23T18:08:06.487Z,12.48
2022-11-23T18:13:12.560Z,11.95
2022-11-23T18:18:15.848Z,8.30
2022-11-23T18:23:19.143Z,10.50
2022-11-23T18:28:22.384Z,12.13
2022-11-23T18:33:25.628Z,10.52
2022-11-23T18:38:28.887Z,10.82
2022-11-23T18:43:34.698Z,10.23
2022-11-23T18:48:40.668Z,10.38
2022-11-23T18:53:47.785Z,11.30
2022-11-23T18:58:51.407Z,10.15
2022-11-23T19:03:54.752Z,9.32
2022-11-23T19:08:58.039Z,12.67
2022-11-23T19:14:01.842Z,10.73
2022-11-23T19:19:07.843Z,11.20
2022-11-23T19:24:11.055Z,10.52
2022-11-23T19:29:14.936Z,9.50
2022-11-23T19:34:18.277Z,9.50
2022-11-23T19:39:21.428Z,10.18
2022-11-23T19:44:24.681Z,11.17
2022-11-23T19:49:29.949Z,11.75
2022-11-23T19:59:50.672Z,12.53
2022-11-23T20:04:53.995Z,11.75
2022-11-23T20:09:57.201Z,10.80
2022-11-23T20:15:00.506Z,10.32
2022-11-23T20:20:05.373Z,10.23
2022-11-23T20:25:09.137Z,12.33
2022-11-23T20:30:13.012Z,11.25
2022-11-23T20:35:18.355Z,11.17
2022-11-23T20:40:21.953Z,10.50
2022-11-23T20:50:55.976Z,9.70
2022-11-23T20:56:03.118Z,9.55
2022-11-23T21:01:30.259Z,8.13
2022-11-23T21:06:38.431Z,10.45
2022-11-23T21:12:01.160Z,9.18
2022-11-23T21:17:05.760Z,6.17
2022-11-23T21:22:11.278Z,6.47
2022-11-23T21:27:14.562Z,6.50
2022-11-23T21:32:17.969Z,7.05
2022-11-23T21:37:22.475Z,7.28
2022-11-23T21:42:25.708Z,6.50
2022-11-23T21:47:29.199Z,9.43
2022-11-23T21:52:32.377Z,8.97
2022-11-23T21:57:35.572Z,7.15
2022-11-23T22:02:39.170Z,8.23
2022-11-23T22:08:00.524Z,7.77
2022-11-23T22:13:08.700Z,9.18
2022-11-23T22:18:12.085Z,8.97
2022-11-23T22:23:15.456Z,8.02
2022-11-23T22:28:20.047Z,7.38
2022-11-23T22:33:23.398Z,6.33
2022-11-23T22:38:26.707Z,9.05
2022-11-23T22:43:33.005Z,7.67
2022-11-23T22:48:37.972Z,10.73
2022-11-23T22:53:45.188Z,8.43
2022-11-23T22:58:49.343Z,9.43
2022-11-23T23:03:56.206Z,9.55
2022-11-23T23:09:01.514Z,10.37
2022-11-23T23:14:05.679Z,10.35
2022-11-23T23:19:09.679Z,10.02
2022-11-23T23:24:12.963Z,9.23
2022-11-23T23:29:16.223Z,7.50
2022-11-23T23:34:19.503Z,9.33
2022-11-23T23:39:22.927Z,8.77
2022-11-23T23:44:26.225Z,10.93
2022-11-23T23:49:31.922Z,8.63
2022-11-23T23:54:35.376Z,11.77
2022-11-23T23:59:41.614Z,10.40
